Latest Coastal Weather Observations for Evans Head

IDN60701

Issued at 4:41 pm EDT Tuesday 11 December 2018 (issued every 10 minutes, with the page automatically refreshed every 10 minutes)

About coastal observations | Map of coastal stations | Coastal observations for NSW | Marine services | Other Formats
Station Details ID: 058212 Name: EVANS HEAD RAAF BOMBING RANGE AWS Lat: -29.18 Lon: 153.40 Height: 62.5 m
Data from the previous 72 hours. | See also: Recent months at Evans Head
Date/Time
EDT
Wind Sea
Height
m
Swell Vis
km
Cloud Weather Temp
°C
Press
hPa
Rain since
9am
mm
Dir  Spd
kts
Gust
kts
Height
m
Period
s
Dir
11/04:30pm ENE 8 10 - - - - - - - 24.2 1015.2 0.0
11/04:00pm E 7 9 - - - - - - - 24.7 1015.4 0.0
11/03:30pm E 8 10 - - - - - - - 24.5 1015.6 0.0
11/03:00pm ENE 8 11 - - - - - - - 25.5 1015.5 0.0
11/02:30pm NE 7 11 - - - - - - - 25.6 1015.7 0.0
11/02:00pm NE 10 12 - - - - - - - 25.3 1015.8 0.0
11/01:30pm ENE 8 11 - - - - - - - 26.2 1016.1 0.0
11/01:00pm NE 7 10 - - - - - - - 25.8 1016.6 0.0
11/12:30pm ENE 9 11 - - - - - - - 26.4 1016.4 0.0
11/12:00pm E 8 10 - - - - - - - 25.6 1016.6 0.0
11/11:30am ESE 10 13 - - - - - - - 26.1 1016.8 0.0
11/11:00am ESE 10 12 - - - - - - - 26.6 1016.8 0.0
11/10:30am ESE 8 11 - - - - - - - 26.6 1016.7 0.0
11/10:00am ESE 7 10 - - - - - - - 26.0 1016.7 0.0
11/09:30am NNE 4 7 - - - - - - - 26.3 1016.6 0.0
11/09:00am ENE 4 7 - - - - - - - 25.5 1016.6 0.0
11/08:30am WNW 2 5 - - - - - - - 24.6 1016.5 0.0
11/08:00am SW 4 7 - - - - - - - 23.2 1016.3 0.0
11/07:30am WSW 2 4 - - - - - - - 21.9 1015.9 0.0
11/07:00am WNW 5 7 - - - - - - - 19.5 1015.3 0.0
11/06:30am WNW 4 5 - - - - - - - 19.2 1015.3 0.0
11/06:00am NW 5 6 - - - - - - - 18.2 1015.0 0.0
11/05:30am NW 4 5 - - - - - - - 18.3 1014.8 0.0
11/05:00am NW 5 6 - - - - - - - 18.2 1014.4 0.0
11/04:30am NNW 4 5 - - - - - - - 18.7 1014.4 0.0
11/04:00am NNW 5 7 - - - - - - - 18.9 1014.5 0.0
11/03:30am NNW 7 9 - - - - - - - 18.9 1014.2 0.0
11/03:00am N 7 8 - - - - - - - 18.9 1014.4 0.0
11/02:30am N 5 6 - - - - - - - 19.0 1014.9 0.0
11/02:00am N 6 8 - - - - - - - 19.2 1015.0 0.0
11/01:30am NNW 5 7 - - - - - - - 19.3 1015.4 0.0
11/01:00am N 7 9 - - - - - - - 19.7 1015.3 0.0
11/12:30am N 8 10 - - - - - - - 19.8 1015.5 0.0
11/12:00am NNE 8 10 - - - - - - - 20.1 1015.6 0.0
 
Date/Time
EDT
Wind Sea
Height
m
Swell Vis
km
Cloud Weather Temp
°C
Press
hPa
Rain since
9am
mm
Dir  Spd
kts
Gust
kts
Height
m
Period
s
Dir
10/11:30pm NNE 7 10 - - - - - - - 20.1 1015.9 0.0
10/11:00pm N 7 10 - - - - - - - 20.1 1015.9 0.0
10/10:30pm N 8 11 - - - - - - - 20.6 1015.9 0.0
10/10:00pm N 9 13 - - - - - - - 20.9 1015.8 0.0
10/09:30pm N 9 13 - - - - - - - 21.1 1015.6 0.0
10/09:00pm N 9 15 - - - - - - - 21.4 1015.4 0.0
10/08:30pm N 9 15 - - - - - - - 21.6 1015.1 0.0
10/08:00pm N 10 16 - - - - - - - 22.1 1014.8 0.0
10/07:30pm N 10 14 - - - - - - - 22.4 1014.4 0.0
10/07:00pm N 10 15 - - - - - - - 22.8 1014.0 0.0
10/06:30pm N 11 17 - - - - - - - 24.1 1013.7 0.0
10/06:00pm N 14 22 - - - - - - - 24.3 1013.4 0.0
10/05:30pm N 11 19 - - - - - - - 25.4 1013.1 0.0
10/05:00pm NNE 13 20 - - - - - - - 24.9 1012.9 0.0
10/04:30pm NNE 11 19 - - - - - - - 26.1 1013.3 0.0
10/04:00pm NNE 11 21 - - - - - - - 25.7 1013.3 0.0
10/03:30pm NNE 12 20 - - - - - - - 26.5 1013.8 0.0
10/03:00pm NNE 11 19 - - - - - - - 27.1 1014.1 0.0
10/02:30pm NE 12 18 - - - - - - - 28.0 1014.3 0.0
10/02:00pm NNE 11 17 - - - - - - - 28.1 1014.5 0.0
10/01:30pm NE 11 15 - - - - - - - 28.3 1014.8 0.0
10/01:00pm ENE 12 17 - - - - - - - 26.7 1015.1 0.0
10/12:30pm ENE 12 18 - - - - - - - 26.6 1015.3 0.0
10/12:00pm ENE 12 16 - - - - - - - 26.8 1015.6 0.0
10/11:30am ENE 10 19 - - - - - - - 24.4 1015.6 0.0
10/11:00am E 8 11 - - - - - - - 23.9 1016.2 0.0
10/10:30am E 8 10 - - - - - - - 24.6 1016.3 0.0
10/10:00am NNW 4 7 - - - - - - - 25.8 1016.4 0.0
10/09:30am NW 6 9 - - - - - - - 26.1 1016.5 0.0
10/09:00am N 7 10 - - - - - - - 25.7 1016.7 0.0
10/08:30am N 5 7 - - - - - - - 25.1 1016.7 0.0
10/08:00am CALM 0 4 - - - - - - - 23.1 1016.6 0.0
10/07:30am CALM 0 0 - - - - - - - 21.7 1016.4 0.0
10/07:00am CALM 0 0 - - - - - - - 20.6 1016.0 0.0
10/06:30am WNW 4 5 - - - - - - - 19.2 1016.0 0.0
10/06:00am NW 4 5 - - - - - - - 18.4 1015.7 0.0
10/05:30am WNW 2 3 - - - - - - - 18.2 1015.7 0.0
10/05:00am NNW 5 6 - - - - - - - 18.0 1015.5 0.0
10/04:30am NNW 4 5 - - - - - - - 18.1 1015.3 0.0
10/04:00am NW 3 4 - - - - - - - 18.3 1015.3 0.0
10/03:30am NNW 4 5 - - - - - - - 18.2 1015.6 0.0
10/03:00am N 5 7 - - - - - - - 18.1 1015.5 0.0
10/02:30am N 5 7 - - - - - - - 18.2 1015.8 0.0
10/02:00am N 5 6 - - - - - - - 18.7 1016.4 0.0
10/01:30am N 5 7 - - - - - - - 19.0 1017.0 0.0
10/01:00am N 5 7 - - - - - - - 19.1 1017.6 0.0
10/12:30am N 5 6 - - - - - - - 19.0 1018.0 0.0
10/12:00am N 5 7 - - - - - - - 19.2 1018.1 0.0
 
Date/Time
EDT
Wind Sea
Height
m
Swell Vis
km
Cloud Weather Temp
°C
Press
hPa
Rain since
9am
mm
Dir  Spd
kts
Gust
kts
Height
m
Period
s
Dir
09/11:30pm N 5 6 - - - - - - - 19.2 1018.0 0.0
09/11:00pm N 5 7 - - - - - - - 19.7 1017.9 0.0
09/10:30pm N 5 7 - - - - - - - 19.8 1017.9 0.0
09/10:00pm N 6 9 - - - - - - - 20.4 1017.8 0.0
09/09:30pm N 7 10 - - - - - - - 20.5 1017.5 0.0
09/09:00pm NNE 7 12 - - - - - - - 20.4 1017.2 0.0
09/08:30pm NNE 8 13 - - - - - - - 20.8 1017.0 0.0
09/08:00pm NNE 7 12 - - - - - - - 21.0 1017.0 0.0
09/07:30pm NNE 7 14 - - - - - - - 21.5 1016.9 0.0
09/07:00pm NNE 8 13 - - - - - - - 22.5 1017.1 0.0
09/06:30pm NNE 6 11 - - - - - - - 22.6 1017.1 0.0
09/06:00pm NE 10 15 - - - - - - - 22.9 1016.7 0.0
09/05:30pm NE 11 15 - - - - - - - 23.7 1016.6 0.0
09/05:00pm ENE 11 15 - - - - - - - 23.7 1016.9 0.0
09/04:30pm ENE 10 15 - - - - - - - 24.8 1017.1 0.0
09/04:00pm ENE 10 15 - - - - - - - 26.1 1017.4 0.0
09/03:30pm ENE 12 15 - - - - - - - 24.9 1017.5 0.0
09/03:00pm ENE 11 16 - - - - - - - 25.4 1017.7 0.0
09/02:30pm ENE 10 15 - - - - - - - 25.8 1017.8 0.0
09/02:00pm ENE 11 16 - - - - - - - 25.3 1018.0 0.0
09/01:30pm ENE 11 16 - - - - - - - 25.6 1018.2 0.0
09/01:00pm ENE 11 16 - - - - - - - 25.5 1018.5 0.0
09/12:30pm NE 11 15 - - - - - - - 25.9 1018.9 0.0
09/12:00pm ENE 10 15 - - - - - - - 25.6 1019.2 0.0
09/11:30am E 8 12 - - - - - - - 25.1 1019.3 0.0
09/11:00am E 6 9 - - - - - - - 24.5 1019.3 0.0
09/10:30am ESE 4 7 - - - - - - - 23.3 1019.4 0.0
09/10:00am S 6 9 - - - - - - - 22.4 1019.6 0.0
09/09:30am W 3 5 - - - - - - - 20.9 1019.7 0.0
09/09:00am SW 5 6 - - - - - - - 19.6 1019.6 0.6
09/08:30am WSW 4 5 - - - - - - - 19.2 1019.6 0.6
09/08:00am WNW 4 5 - - - - - - - 18.8 1019.5 0.6
09/07:30am SW 6 7 - - - - - - - 18.6 1019.5 0.4
09/07:00am W 5 7 - - - - - - - 18.7 1019.4 0.0
09/06:30am NNE 2 4 - - - - - - - 20.2 1018.9 0.0
09/06:00am NE 5 8 - - - - - - - 20.3 1018.8 0.0
09/05:30am ENE 3 5 - - - - - - - 20.6 1018.6 0.0
09/05:00am CALM 0 0 - - - - - - - 20.5 1018.7 0.0
09/04:30am ENE 4 5 - - - - - - - 20.3 1018.6 0.0
09/04:00am CALM 0 0 - - - - - - - 19.7 1018.7 0.0
09/03:30am ESE 1 3 - - - - - - - 19.8 1018.8 0.0
09/03:00am ENE 4 5 - - - - - - - 20.0 1018.9 0.0
09/02:30am E 5 6 - - - - - - - 20.0 1019.1 0.0
09/02:00am E 6 7 - - - - - - - 20.2 1019.4 0.0
09/01:30am E 4 5 - - - - - - - 20.5 1020.2 0.0
09/01:00am NE 3 5 - - - - - - - 20.7 1020.7 0.0
09/12:30am NE 4 6 - - - - - - - 20.7 1021.0 0.0
09/12:00am ENE 6 9 - - - - - - - 20.9 1021.3 0.0
 
Date/Time
EDT
Wind Sea
Height
m
Swell Vis
km
Cloud Weather Temp
°C
Press
hPa
Rain since
9am
mm
Dir  Spd
kts
Gust
kts
Height
m
Period
s
Dir
08/11:30pm E 7 9 - - - - - - - 21.0 1021.5 0.0
08/11:00pm ENE 7 11 - - - - - - - 21.1 1021.8 0.0
08/10:30pm E 8 11 - - - - - - - 21.1 1021.9 0.0
08/10:00pm E 7 10 - - - - - - - 20.9 1021.7 0.0
08/09:30pm ENE 8 11 - - - - - - - 21.1 1021.7 0.0
08/09:00pm ENE 9 14 - - - - - - - 21.2 1021.5 0.0
08/08:30pm ENE 7 10 - - - - - - - 20.9 1021.1 0.0
08/08:00pm ENE 7 10 - - - - - - - 21.1 1020.9 0.0
08/07:30pm NE 7 11 - - - - - - - 21.3 1020.8 0.0
08/07:00pm ENE 6 8 - - - - - - - 21.8 1020.8 0.0
08/06:30pm ENE 6 9 - - - - - - - 22.2 1020.7 0.0
08/06:00pm ENE 7 10 - - - - - - - 22.3 1020.3 0.0
08/05:30pm ENE 7 10 - - - - - - - 22.3 1020.1 0.0
08/05:00pm ENE 7 12 - - - - - - - 22.2 1020.0 0.0

Other Formats:

Comma delimited format used in spreadsheet applications
http://www.bom.gov.au/fwo/IDN60701/IDN60701.94598.axf

JavaScript Object Notation format (JSON) in row-major order
http://www.bom.gov.au/fwo/IDN60701/IDN60701.94598.json